Time;durP1;ratioP1;P1;durP2;ratioP2;P2;SDS_P1;SDS_P2;PMS_P1;PMS_P2;Temp;Humidity;BMP_temperature;BMP_pressure;BME280_temperature;BME280_humidity;BME280_pressure;Samples;Min_cycle;Max_cycle;Signal;HPM_P1;HPM_P2
2022/06/23 00:02:04;;;;;;;3.97;0.70;;;24.30;57.50;;;;;;2406592;53;21816;-70
2022/06/23 00:04:31;;;;;;;3.28;1.00;;;24.30;57.40;;;;;;2577740;53;20946;-74
2022/06/23 00:06:59;;;;;;;1.98;0.95;;;24.30;57.30;;;;;;2344155;54;21069;-72
2022/06/23 00:09:39;;;;;;;1.87;0.90;;;24.20;57.20;;;;;;2307612;55;21039;-72
2022/06/23 00:12:30;;;;;;;4.12;1.15;;;24.20;57.40;;;;;;2383042;52;20938;-71
2022/06/23 00:15:25;;;;;;;3.33;1.12;;;24.20;57.40;;;;;;2297034;55;20994;-73
2022/06/23 00:18:02;;;;;;;2.47;0.88;;;24.10;57.30;;;;;;2342362;54;21042;-72
2022/06/23 00:20:55;;;;;;;3.22;1.00;;;24.10;57.20;;;;;;2565009;53;21835;-72
2022/06/23 00:23:33;;;;;;;2.55;0.80;;;24.10;57.20;;;;;;2342995;54;20927;-72
2022/06/23 00:26:14;;;;;;;2.45;0.80;;;24.00;57.10;;;;;;2344860;54;21003;-72
2022/06/23 00:28:51;;;;;;;6.72;1.67;;;24.00;57.10;;;;;;2330034;53;21561;-73
2022/06/23 00:33:22;;;;;;;3.42;0.80;;;23.90;57.00;;;;;;2326681;54;20950;-72
2022/06/23 00:35:50;;;;;;;2.30;0.80;;;23.90;57.00;;;;;;2590020;53;20943;-72
2022/06/23 00:38:38;;;;;;;2.72;0.70;;;23.90;56.90;;;;;;2320393;54;20966;-74
2022/06/23 00:41:05;;;;;;;4.32;1.12;;;23.80;57.10;;;;;;2308878;54;20940;-73
2022/06/23 00:43:31;;;;;;;4.07;0.80;;;23.70;57.00;;;;;;2384179;53;20961;-72
2022/06/23 00:46:09;;;;;;;1.73;0.73;;;23.70;57.00;;;;;;2316246;54;21027;-74
2022/06/23 00:48:44;;;;;;;3.22;0.90;;;23.70;57.10;;;;;;2316314;54;22111;-73
2022/06/23 00:51:29;;;;;;;2.53;0.80;;;23.60;57.10;;;;;;2320685;54;20957;-74
2022/06/23 00:54:02;;;;;;;4.53;1.10;;;23.60;57.20;;;;;;2559993;53;20919;-71
2022/06/23 00:56:52;;;;;;;3.53;1.23;;;23.50;57.30;;;;;;2337979;53;20958;-72
2022/06/23 00:59:32;;;;;;;4.37;1.12;;;23.50;57.50;;;;;;2339345;54;21452;-72
2022/06/23 01:02:04;;;;;;;2.72;0.90;;;23.50;57.60;;;;;;2584953;53;20931;-71
2022/06/23 01:04:57;;;;;;;2.08;0.77;;;23.40;57.40;;;;;;2336765;55;20942;-70
2022/06/23 01:07:40;;;;;;;2.28;0.80;;;23.40;57.50;;;;;;2339169;54;20971;-72
2022/06/23 01:10:54;;;;;;;3.67;0.98;;;23.40;57.80;;;;;;2317036;54;21013;-71
2022/06/23 01:13:35;;;;;;;3.37;0.98;;;23.40;57.80;;;;;;2316781;54;21035;-72
2022/06/23 01:16:09;;;;;;;4.72;1.33;;;23.30;57.70;;;;;;2463218;54;20974;-72
2022/06/23 01:18:38;;;;;;;2.72;0.80;;;23.30;57.70;;;;;;2342522;54;20971;-74
2022/06/23 01:21:18;;;;;;;2.67;0.82;;;23.30;57.70;;;;;;2564445;53;21731;-71
2022/06/23 01:24:23;;;;;;;3.15;1.00;;;23.20;57.80;;;;;;2343871;53;20950;-72
2022/06/23 01:26:59;;;;;;;2.70;0.65;;;23.20;58.00;;;;;;2338838;54;21072;-73
2022/06/23 01:29:30;;;;;;;4.05;1.00;;;23.10;57.90;;;;;;2324122;54;21107;-72
2022/06/23 01:32:05;;;;;;;3.37;0.82;;;23.10;57.80;;;;;;2415249;53;21866;-73
2022/06/23 01:34:59;;;;;;;2.42;0.80;;;23.10;57.80;;;;;;2406964;53;20954;-74
2022/06/23 01:38:22;;;;;;;3.05;0.80;;;23.00;57.90;;;;;;2343953;54;21518;-72
2022/06/23 01:40:55;;;;;;;4.28;1.00;;;23.00;58.00;;;;;;2343795;53;20946;-71
2022/06/23 01:43:35;;;;;;;2.05;0.57;;;23.10;57.80;;;;;;2345009;53;21822;-74
2022/06/23 01:46:09;;;;;;;3.47;0.90;;;23.00;57.80;;;;;;2344435;54;20958;-71
2022/06/23 01:48:53;;;;;;;2.10;0.60;;;23.00;57.70;;;;;;2502587;53;21458;-72
2022/06/23 01:52:07;;;;;;;3.25;0.75;;;23.00;57.80;;;;;;2343279;54;21833;-72
2022/06/23 01:54:35;;;;;;;3.25;0.95;;;23.00;57.80;;;;;;2343023;54;20946;-71
2022/06/23 01:58:04;;;;;;;2.30;0.62;;;22.90;57.60;;;;;;2326095;54;20967;-75
2022/06/23 02:00:30;;;;;;;1.73;0.50;;;22.90;57.80;;;;;;2341600;54;21463;-72
2022/06/23 02:03:41;;;;;;;2.80;0.70;;;22.80;57.50;;;;;;2523209;53;20986;-75
2022/06/23 02:06:27;;;;;;;2.03;0.55;;;22.80;57.60;;;;;;2343118;54;20963;-72
2022/06/23 02:10:22;;;;;;;3.62;0.85;;;22.80;57.70;;;;;;2303865;54;20967;-74
2022/06/23 02:13:14;;;;;;;3.08;0.70;;;22.70;57.70;;;;;;2344545;53;20953;-72
2022/06/23 02:15:52;;;;;;;3.60;1.00;;;22.70;57.70;;;;;;2325681;53;20931;-72
2022/06/23 02:18:41;;;;;;;1.85;0.70;;;22.70;58.00;;;;;;2405123;53;20951;-72
2022/06/23 02:23:48;;;;;;;2.80;0.85;;;22.60;57.80;;;;;;2339247;55;21014;-72
2022/06/23 02:26:24;;;;;;;1.80;0.80;;;22.60;57.90;;;;;;2339204;53;20927;-73
2022/06/23 02:34:56;;;;;;;3.58;1.20;;;22.60;57.60;;;;;;2339303;54;21801;-71
2022/06/23 02:37:53;;;;;;;1.60;0.77;;;22.60;57.80;;;;;;2339111;54;20947;-74
2022/06/23 02:41:39;;;;;;;1.87;0.62;;;22.50;57.60;;;;;;2339378;55;20927;-73
2022/06/23 02:44:33;;;;;;;2.25;0.68;;;22.40;57.90;;;;;;2339439;54;21487;-72
2022/06/23 02:51:50;;;;;;;2.08;0.62;;;22.40;57.70;;;;;;2409698;53;21681;-72
2022/06/23 02:56:02;;;;;;;3.55;0.77;;;22.30;57.60;;;;;;2339355;54;21022;-73
2022/06/23 02:59:11;;;;;;;3.87;0.60;;;22.30;57.80;;;;;;2342293;53;21044;-72
2022/06/23 03:03:04;;;;;;;4.28;0.60;;;22.20;57.80;;;;;;2342160;53;20999;-72
2022/06/23 03:05:52;;;;;;;1.70;0.70;;;22.20;57.70;;;;;;2338983;54;20990;-72
2022/06/23 03:09:40;;;;;;;3.58;0.95;;;22.20;57.70;;;;;;2510970;53;20899;-72
2022/06/23 03:12:18;;;;;;;3.17;0.70;;;22.10;57.70;;;;;;2315582;53;21040;-72
2022/06/23 03:15:01;;;;;;;2.47;0.60;;;22.10;57.60;;;;;;2313314;53;20960;-73
2022/06/23 03:17:53;;;;;;;1.70;0.60;;;22.00;57.60;;;;;;2530900;53;20978;-74
2022/06/23 03:20:47;;;;;;;3.62;0.90;;;22.00;57.60;;;;;;2343447;53;21006;-70
2022/06/23 03:23:36;;;;;;;4.00;0.80;;;22.00;57.80;;;;;;2343672;54;21388;-74
2022/06/23 03:32:54;;;;;;;3.87;0.90;;;21.90;57.50;;;;;;2343850;54;20946;-71
2022/06/23 03:35:27;;;;;;;2.40;0.70;;;21.90;57.50;;;;;;2343469;53;20974;-74
2022/06/23 03:44:22;;;;;;;1.45;0.68;;;21.80;57.50;;;;;;2352516;53;20094;-71
2022/06/23 03:47:14;;;;;;;2.80;0.70;;;21.80;57.60;;;;;;2343668;54;21400;-75
2022/06/23 03:49:59;;;;;;;4.10;1.00;;;21.70;57.80;;;;;;2589815;53;20955;-72
2022/06/23 03:55:25;;;;;;;4.28;0.82;;;21.70;57.80;;;;;;2589780;53;21010;-72
2022/06/23 03:58:14;;;;;;;5.07;1.02;;;21.60;57.70;;;;;;2370998;53;20950;-71
2022/06/23 04:00:42;;;;;;;2.25;0.70;;;21.60;57.80;;;;;;2589920;53;21011;-71
2022/06/23 04:03:22;;;;;;;3.65;1.02;;;21.60;57.70;;;;;;2344217;54;20978;-70
2022/06/23 04:08:29;;;;;;;2.12;0.85;;;21.60;58.00;;;;;;2343627;54;20999;-71
2022/06/23 04:10:58;;;;;;;1.75;0.70;;;21.60;58.00;;;;;;2321576;54;20989;-71
2022/06/23 04:13:31;;;;;;;2.08;0.70;;;21.50;57.70;;;;;;2330395;53;21025;-72
2022/06/23 04:16:04;;;;;;;1.48;0.70;;;21.50;57.80;;;;;;2331268;53;21532;-73
2022/06/23 04:18:31;;;;;;;3.35;0.77;;;21.50;58.00;;;;;;2345677;53;21005;-73
2022/06/23 04:21:30;;;;;;;3.58;0.85;;;21.40;57.90;;;;;;2343611;53;20934;-71
2022/06/23 04:24:03;;;;;;;2.33;0.80;;;21.50;58.30;;;;;;2322878;54;21745;-73
2022/06/23 04:26:32;;;;;;;2.50;0.80;;;21.40;58.10;;;;;;2320344;54;20990;-74
2022/06/23 04:29:20;;;;;;;2.95;0.90;;;21.40;58.10;;;;;;2343438;54;21057;-76
2022/06/23 04:31:50;;;;;;;2.58;0.90;;;21.40;58.40;;;;;;2321718;54;20970;-73
2022/06/23 04:34:28;;;;;;;2.30;0.90;;;21.40;58.30;;;;;;2341945;54;20962;-70
2022/06/23 04:36:54;;;;;;;4.45;1.00;;;21.40;58.60;;;;;;2556914;53;20990;-75
2022/06/23 04:39:40;;;;;;;3.28;1.08;;;21.40;58.50;;;;;;2588346;52;20938;-70
2022/06/23 04:42:22;;;;;;;3.67;1.17;;;21.40;59.00;;;;;;2349995;53;20970;-74
2022/06/23 04:44:52;;;;;;;;;;;21.50;59.00;;;;;;2303249;55;21077;-73
2022/06/23 04:47:23;;;;;;;2.10;0.85;;;21.40;58.80;;;;;;2476293;53;20107;-72
2022/06/23 04:49:54;;;;;;;2.45;0.98;;;21.40;58.70;;;;;;2324045;53;20977;-70
2022/06/23 04:52:37;;;;;;;4.47;1.23;;;21.40;58.90;;;;;;2329814;54;20962;-71
2022/06/23 04:55:46;;;;;;;3.10;0.90;;;21.50;59.40;;;;;;2345423;54;20938;-73
2022/06/23 04:58:15;;;;;;;2.78;0.70;;;21.50;59.40;;;;;;2327553;54;20942;-74
2022/06/23 05:00:46;;;;;;;4.35;1.20;;;21.50;59.10;;;;;;2516230;53;21829;-72
2022/06/23 05:03:48;;;;;;;4.72;1.05;;;21.50;59.30;;;;;;2340618;53;20939;-73
2022/06/23 05:06:21;;;;;;;3.22;0.82;;;21.60;59.70;;;;;;2343436;54;21021;-72
2022/06/23 05:08:48;;;;;;;3.05;0.90;;;21.60;59.50;;;;;;2376891;53;20950;-76
2022/06/23 05:11:29;;;;;;;2.78;0.85;;;21.60;59.40;;;;;;2457280;53;20950;-72
2022/06/23 05:13:58;;;;;;;5.40;1.40;;;21.60;59.60;;;;;;2392547;53;21010;-72
2022/06/23 05:16:28;;;;;;;4.40;1.00;;;21.70;59.60;;;;;;2343318;54;20938;-72
2022/06/23 05:18:58;;;;;;;3.10;1.27;;;21.70;59.70;;;;;;2333640;54;20955;-72
2022/06/23 05:21:27;;;;;;;2.70;0.80;;;21.70;59.60;;;;;;2322728;54;20927;-72
2022/06/23 05:24:21;;;;;;;3.47;1.42;;;21.80;59.80;;;;;;2335332;54;20931;-72
2022/06/23 05:27:33;;;;;;;5.03;1.30;;;21.90;60.20;;;;;;2335479;54;21025;-72
2022/06/23 05:30:25;;;;;;;2.42;0.70;;;21.90;60.20;;;;;;2347094;53;20947;-71
2022/06/23 05:33:35;;;;;;;4.65;1.35;;;22.00;60.10;;;;;;2334635;54;21566;-73
2022/06/23 05:36:04;;;;;;;3.65;1.33;;;22.00;60.50;;;;;;2435088;53;21037;-75
2022/06/23 05:38:48;;;;;;;3.05;1.00;;;22.10;60.10;;;;;;2343149;53;20986;-72
2022/06/23 05:41:34;;;;;;;4.25;1.20;;;22.10;60.70;;;;;;2343596;54;21002;-74
2022/06/23 05:44:03;;;;;;;3.45;1.05;;;22.10;60.30;;;;;;2343785;54;20970;-74
2022/06/23 05:46:29;;;;;;;2.97;1.10;;;22.20;60.40;;;;;;2398187;53;21357;-72
2022/06/23 05:49:06;;;;;;;4.15;1.30;;;22.20;60.40;;;;;;2343373;53;21010;-72
2022/06/23 05:52:38;;;;;;;3.85;1.25;;;22.30;60.80;;;;;;2343496;54;20999;-72
2022/06/23 05:55:38;;;;;;;5.07;1.70;;;22.40;61.20;;;;;;2320618;55;21359;-71
2022/06/23 05:59:06;;;;;;;3.53;1.17;;;22.40;61.20;;;;;;2377106;53;21430;-72
2022/06/23 06:01:35;;;;;;;3.05;1.15;;;22.50;61.20;;;;;;2316545;54;20933;-70
2022/06/23 06:04:17;;;;;;;3.60;1.40;;;22.50;60.70;;;;;;2368112;54;21483;-72
2022/06/23 06:06:45;;;;;;;5.00;1.27;;;22.60;61.00;;;;;;2317409;54;21016;-70
2022/06/23 06:12:00;;;;;;;2.92;1.10;;;22.70;61.30;;;;;;2384262;53;21036;-71
2022/06/23 06:14:29;;;;;;;3.60;1.23;;;22.80;61.40;;;;;;2316561;54;20968;-73
2022/06/23 06:16:57;;;;;;;3.72;1.15;;;22.80;61.50;;;;;;2316789;54;20952;-73
2022/06/23 06:19:23;;;;;;;4.40;1.37;;;22.90;61.50;;;;;;2316787;54;21068;-71
2022/06/23 06:21:58;;;;;;;4.18;1.25;;;23.00;61.70;;;;;;2318414;54;20927;-74
2022/06/23 06:24:33;;;;;;;4.03;1.77;;;23.00;61.60;;;;;;2555179;53;21005;-72
2022/06/23 06:27:00;;;;;;;3.37;1.40;;;23.10;61.90;;;;;;2557569;54;21012;-71
2022/06/23 06:29:34;;;;;;;3.83;1.35;;;23.20;61.70;;;;;;2312917;54;21008;-70
2022/06/23 06:32:33;;;;;;;5.28;1.50;;;23.20;61.70;;;;;;2317017;54;21085;-72
2022/06/23 06:36:55;;;;;;;3.72;1.08;;;23.30;62.20;;;;;;2316198;54;21033;-74
2022/06/23 06:39:43;;;;;;;2.50;1.05;;;23.40;61.90;;;;;;2315647;54;20989;-71
2022/06/23 06:42:14;;;;;;;4.05;1.40;;;23.50;62.10;;;;;;2298632;55;20915;-72
2022/06/23 06:44:43;;;;;;;3.47;1.15;;;23.60;61.70;;;;;;2341543;54;20953;-75
2022/06/23 06:47:18;;;;;;;3.70;1.40;;;23.70;61.90;;;;;;2307510;55;20953;-72
2022/06/23 06:49:45;;;;;;;4.60;1.27;;;23.80;62.10;;;;;;2346692;54;20987;-72
2022/06/23 06:52:12;;;;;;;4.25;1.33;;;23.80;61.90;;;;;;2349619;53;20944;-74
2022/06/23 06:54:48;;;;;;;4.50;1.50;;;23.90;62.00;;;;;;2346271;54;20963;-71
2022/06/23 06:58:07;;;;;;;4.90;1.40;;;24.00;62.20;;;;;;2324919;54;21478;-72
2022/06/23 07:00:40;;;;;;;3.95;1.23;;;24.10;62.50;;;;;;2347796;54;20942;-74
2022/06/23 07:03:08;;;;;;;3.00;1.20;;;24.20;62.80;;;;;;2343785;54;20953;-74
2022/06/23 07:05:48;;;;;;;4.03;1.08;;;24.30;62.00;;;;;;2321466;54;21038;-71
2022/06/23 07:08:42;;;;;;;2.67;1.27;;;24.40;62.30;;;;;;2343213;54;20976;-75
2022/06/23 07:11:22;;;;;;;2.85;1.20;;;24.50;62.40;;;;;;2344406;54;20953;-71
2022/06/23 07:16:31;;;;;;;3.12;1.10;;;24.60;62.20;;;;;;2343685;54;20921;-72
2022/06/23 07:19:10;;;;;;;2.97;0.95;;;24.70;62.10;;;;;;2345414;54;20965;-71
2022/06/23 07:21:42;;;;;;;2.50;0.95;;;24.90;61.80;;;;;;2354369;54;21012;-71
2022/06/23 07:24:21;;;;;;;3.17;1.00;;;25.00;61.80;;;;;;2338626;54;21761;-73
2022/06/23 07:27:18;;;;;;;2.70;1.10;;;25.10;61.80;;;;;;2344116;53;21554;-73
2022/06/23 07:29:52;;;;;;;3.78;1.45;;;25.20;61.80;;;;;;2590259;53;20917;-73
2022/06/23 07:32:57;;;;;;;6.15;1.50;;;25.30;61.90;;;;;;2342881;53;21021;-72
2022/06/23 07:35:36;;;;;;;4.28;1.10;;;25.40;61.70;;;;;;2343985;54;21024;-72
2022/06/23 07:38:12;;;;;;;4.95;1.08;;;25.50;61.60;;;;;;2394655;53;20978;-73
2022/06/23 07:40:50;;;;;;;2.90;1.17;;;25.60;61.30;;;;;;2333351;54;21436;-72
2022/06/23 07:43:43;;;;;;;3.30;1.02;;;25.70;61.30;;;;;;2336636;54;20997;-73
2022/06/23 07:46:09;;;;;;;3.70;1.10;;;25.80;61.40;;;;;;2343528;54;21017;-73
2022/06/23 07:48:36;;;;;;;5.47;1.80;;;25.90;61.20;;;;;;2530760;53;21048;-76
2022/06/23 07:51:07;;;;;;;3.97;1.10;;;26.00;61.00;;;;;;2343803;54;20972;-73
2022/06/23 07:53:38;;;;;;;5.43;1.30;;;26.10;60.60;;;;;;2343806;54;21692;-75
2022/06/23 07:56:05;;;;;;;3.55;1.17;;;26.20;60.50;;;;;;2344263;54;21028;-75
2022/06/23 07:58:34;;;;;;;5.18;1.40;;;26.30;60.30;;;;;;2344240;54;20909;-72
2022/06/23 08:01:08;;;;;;;4.97;1.45;;;26.40;60.10;;;;;;2345613;54;20917;-72
2022/06/23 08:03:40;;;;;;;4.53;1.05;;;26.40;60.00;;;;;;2343941;54;20952;-73
2022/06/23 08:06:09;;;;;;;6.87;1.62;;;26.50;59.90;;;;;;2344325;54;21671;-72
2022/06/23 08:08:38;;;;;;;6.45;1.40;;;26.60;59.60;;;;;;2343555;53;20992;-72
2022/06/23 08:13:58;;;;;;;7.12;1.35;;;26.70;59.30;;;;;;2589945;53;21058;-74
2022/06/23 08:20:31;;;;;;;6.70;1.75;;;26.90;59.10;;;;;;2343936;54;20980;-70
2022/06/23 08:22:59;;;;;;;4.90;1.40;;;26.90;58.90;;;;;;2524639;54;20999;-72
2022/06/23 08:25:25;;;;;;;6.68;1.70;;;27.00;58.70;;;;;;2316409;53;20988;-73
2022/06/23 08:27:52;;;;;;;3.35;1.17;;;27.10;58.60;;;;;;2316749;54;20964;-72
2022/06/23 08:30:19;;;;;;;5.93;1.20;;;27.20;58.60;;;;;;2401885;53;21045;-73
2022/06/23 08:32:46;;;;;;;3.90;1.58;;;27.20;58.30;;;;;;2343582;53;20999;-73
2022/06/23 08:35:38;;;;;;;6.78;1.60;;;27.30;58.20;;;;;;2343567;54;21462;-74
2022/06/23 08:39:08;;;;;;;3.45;1.42;;;27.30;57.80;;;;;;2320456;53;20951;-72
2022/06/23 08:41:45;;;;;;;4.32;1.48;;;27.50;57.50;;;;;;2331885;55;20964;-73
2022/06/23 08:44:57;;;;;;;3.55;1.33;;;27.50;57.30;;;;;;2343640;53;20946;-71
2022/06/23 08:51:14;;;;;;;4.70;1.30;;;27.60;57.40;;;;;;2331031;53;21571;-75
2022/06/23 08:55:08;;;;;;;4.97;1.45;;;27.60;57.20;;;;;;2338616;55;21832;-75
2022/06/23 08:58:04;;;;;;;5.05;1.55;;;27.80;57.10;;;;;;2338996;55;20955;-71
2022/06/23 09:01:11;;;;;;;6.32;1.62;;;27.90;57.10;;;;;;2492473;53;20926;-72
2022/06/23 09:03:54;;;;;;;6.60;1.65;;;27.90;56.60;;;;;;2339222;54;20906;-73
2022/06/23 09:06:59;;;;;;;4.40;1.40;;;28.00;56.60;;;;;;2338690;54;20919;-73
2022/06/23 09:09:32;;;;;;;5.07;1.52;;;28.10;56.40;;;;;;2341754;55;20935;-73
2022/06/23 09:13:56;;;;;;;6.95;1.62;;;28.10;56.50;;;;;;2338617;53;20987;-74
2022/06/23 09:21:46;;;;;;;4.28;1.30;;;28.20;56.20;;;;;;2343646;53;20984;-74
2022/06/23 09:24:49;;;;;;;4.40;1.17;;;28.30;56.20;;;;;;2584429;53;21296;-76
2022/06/23 09:27:29;;;;;;;6.03;1.25;;;28.50;55.90;;;;;;2344248;53;20987;-73
2022/06/23 09:30:17;;;;;;;8.13;1.73;;;28.60;55.90;;;;;;2333251;53;20911;-74
2022/06/23 09:33:51;;;;;;;4.72;1.37;;;28.60;55.90;;;;;;2583989;53;20953;-75
2022/06/23 09:36:55;;;;;;;5.05;1.40;;;28.70;55.40;;;;;;2342571;53;20976;-74
2022/06/23 09:41:05;;;;;;;6.40;1.70;;;28.80;55.20;;;;;;2375304;53;21503;-71
2022/06/23 09:44:00;;;;;;;7.05;1.62;;;28.80;55.40;;;;;;2341784;53;20968;-74
2022/06/23 09:47:00;;;;;;;5.55;1.40;;;28.90;55.40;;;;;;2338834;53;20936;-72
2022/06/23 09:49:44;;;;;;;7.90;1.95;;;29.00;54.80;;;;;;2341335;54;20953;-76
2022/06/23 09:53:59;;;;;;;5.57;1.85;;;29.10;54.80;;;;;;2342008;53;21894;-71
2022/06/23 09:57:00;;;;;;;3.90;1.37;;;29.10;54.60;;;;;;2527994;52;20977;-72
2022/06/23 10:00:03;;;;;;;6.60;1.58;;;29.20;54.50;;;;;;2342565;53;20953;-72
2022/06/23 10:09:39;;;;;;;5.22;1.70;;;29.20;54.30;;;;;;2338078;53;20919;-74
2022/06/23 10:12:28;;;;;;;4.72;1.10;;;29.40;54.40;;;;;;2338641;55;20919;-71
2022/06/23 10:15:26;;;;;;;5.10;1.40;;;29.50;54.30;;;;;;2554464;52;20993;-76
2022/06/23 10:18:13;;;;;;;3.60;1.10;;;29.50;54.30;;;;;;2345912;53;20974;-72
2022/06/23 10:21:18;;;;;;;6.62;1.73;;;29.50;54.00;;;;;;2449581;53;21586;-70
2022/06/23 10:25:20;;;;;;;8.63;1.60;;;29.60;54.50;;;;;;2341571;54;20915;-73
2022/06/23 10:31:10;;;;;;;5.70;1.48;;;29.70;54.20;;;;;;2341772;53;21040;-75
2022/06/23 10:39:27;;;;;;;4.68;1.40;;;29.70;53.60;;;;;;2339333;53;21028;-72
2022/06/23 10:47:30;;;;;;;3.95;1.20;;;30.00;53.70;;;;;;2339060;54;21416;-72
2022/06/23 10:50:47;;;;;;;5.90;1.02;;;30.10;53.50;;;;;;2338556;55;21728;-71
2022/06/23 10:53:51;;;;;;;5.40;1.48;;;30.30;53.00;;;;;;2339338;54;21027;-75
2022/06/23 10:56:39;;;;;;;5.78;1.37;;;30.30;53.00;;;;;;2409155;53;21333;-73
2022/06/23 10:59:35;;;;;;;5.32;1.42;;;30.40;52.90;;;;;;2340697;53;20932;-73
2022/06/23 11:05:23;;;;;;;6.25;1.40;;;30.40;52.70;;;;;;2344312;53;20945;-72
2022/06/23 11:10:02;;;;;;;3.45;1.00;;;30.50;52.70;;;;;;2347520;53;20983;-73
2022/06/23 11:16:19;;;;;;;3.30;1.40;;;30.60;52.40;;;;;;2344329;53;21556;-74
2022/06/23 11:22:02;;;;;;;4.22;1.30;;;30.70;52.30;;;;;;2346309;54;21025;-77
2022/06/23 11:26:17;;;;;;;4.80;1.10;;;30.80;51.70;;;;;;2590009;53;21415;-72
2022/06/23 11:29:19;;;;;;;5.62;1.58;;;30.90;51.60;;;;;;2346432;54;21443;-73
2022/06/23 11:41:11;;;;;;;6.10;1.90;;;31.00;51.50;;;;;;2343817;53;20945;-75
2022/06/23 11:44:21;;;;;;;3.35;1.02;;;31.20;51.70;;;;;;2344341;54;21801;-73
2022/06/23 11:48:56;;;;;;;4.80;1.23;;;31.30;51.30;;;;;;2366303;53;21077;-74
2022/06/23 11:54:49;;;;;;;4.87;1.17;;;31.30;51.10;;;;;;2344083;53;20901;-73
2022/06/23 11:58:13;;;;;;;8.02;1.30;;;31.40;51.00;;;;;;2341309;54;20937;-75
2022/06/23 12:01:43;;;;;;;4.30;1.40;;;31.50;50.90;;;;;;2347555;54;20958;-73
2022/06/23 12:10:39;;;;;;;4.97;1.48;;;31.50;50.70;;;;;;2500666;53;20945;-74
2022/06/23 12:13:06;;;;;;;5.05;1.20;;;31.70;50.60;;;;;;2378611;53;20921;-75
2022/06/23 12:15:40;;;;;;;5.78;1.45;;;31.80;50.60;;;;;;2590327;53;20929;-74
2022/06/23 12:18:20;;;;;;;7.37;1.50;;;31.90;50.00;;;;;;2343817;54;20921;-73
2022/06/23 12:20:55;;;;;;;5.32;1.45;;;31.90;50.10;;;;;;2344229;54;20924;-74
2022/06/23 12:23:45;;;;;;;3.97;1.17;;;32.00;50.30;;;;;;2344151;53;20984;-73
2022/06/23 12:26:38;;;;;;;4.03;1.52;;;32.00;50.40;;;;;;2315125;54;21045;-73
2022/06/23 12:29:13;;;;;;;5.28;1.20;;;32.10;50.20;;;;;;2319084;54;20963;-73
2022/06/23 12:34:52;;;;;;;6.82;1.98;;;32.20;50.10;;;;;;2343685;54;21038;-72
2022/06/23 12:37:47;;;;;;;6.35;1.20;;;32.30;49.80;;;;;;2422817;53;20965;-73
2022/06/23 12:40:33;;;;;;;7.00;1.70;;;32.40;48.80;;;;;;2318583;53;21735;-74
2022/06/23 12:43:35;;;;;;;3.65;1.10;;;32.50;48.50;;;;;;2333079;53;21489;-72
2022/06/23 12:47:39;;;;;;;3.90;1.08;;;32.50;48.30;;;;;;2316797;54;20945;-74
2022/06/23 12:50:21;;;;;;;2.85;0.93;;;32.60;48.60;;;;;;2316515;54;21918;-74
2022/06/23 12:53:02;;;;;;;7.15;1.17;;;32.60;48.50;;;;;;2338707;53;20929;-73
2022/06/23 12:56:03;;;;;;;6.15;1.17;;;32.60;48.30;;;;;;2341727;53;21033;-74
2022/06/23 12:58:53;;;;;;;4.60;1.50;;;32.70;47.80;;;;;;2346744;53;21495;-73
2022/06/23 13:01:38;;;;;;;4.85;1.45;;;32.80;48.10;;;;;;2317929;54;21056;-74
2022/06/23 13:04:16;;;;;;;6.32;1.48;;;32.80;47.80;;;;;;2336862;54;20986;-73
2022/06/23 13:06:54;;;;;;;5.35;1.20;;;32.80;47.90;;;;;;2317993;54;21013;-74
2022/06/23 13:12:03;;;;;;;6.05;1.40;;;32.90;47.70;;;;;;2555302;53;20922;-73
2022/06/23 13:14:39;;;;;;;4.47;1.02;;;33.00;47.80;;;;;;2343851;53;20951;-74
2022/06/23 13:17:25;;;;;;;4.87;1.35;;;33.00;47.30;;;;;;2343442;54;21685;-75
2022/06/23 13:19:56;;;;;;;4.07;1.15;;;33.10;47.00;;;;;;2319576;54;20942;-74
2022/06/23 13:24:16;;;;;;;3.58;1.27;;;33.10;46.90;;;;;;2343587;54;21544;-73
2022/06/23 13:30:14;;;;;;;4.93;1.00;;;33.20;46.60;;;;;;2320359;54;21007;-74
2022/06/23 13:39:50;;;;;;;5.45;1.80;;;33.30;46.80;;;;;;2327379;54;21547;-74
2022/06/23 13:42:29;;;;;;;2.97;0.90;;;33.30;46.00;;;;;;2343790;54;21014;-73
2022/06/23 13:46:34;;;;;;;3.37;0.90;;;33.50;46.30;;;;;;2343359;54;21027;-73
2022/06/23 13:49:20;;;;;;;3.97;0.98;;;33.50;46.10;;;;;;2292269;55;21036;-73
2022/06/23 13:52:10;;;;;;;3.50;1.12;;;33.60;45.60;;;;;;2315985;53;20969;-73
2022/06/23 13:54:41;;;;;;;4.07;1.08;;;33.60;45.70;;;;;;2525119;54;20950;-73
2022/06/23 13:57:23;;;;;;;4.57;1.23;;;33.70;45.80;;;;;;2585147;53;21320;-78
2022/06/23 14:03:24;;;;;;;5.50;1.50;;;33.70;45.50;;;;;;2556733;53;21547;-73
2022/06/23 14:06:03;;;;;;;4.05;1.20;;;33.90;45.70;;;;;;2340330;54;21033;-74
2022/06/23 14:10:56;;;;;;;4.05;1.10;;;34.00;45.30;;;;;;2343254;54;21747;-74
2022/06/23 14:13:51;;;;;;;2.57;0.90;;;34.10;44.80;;;;;;2340473;53;21029;-73
2022/06/23 14:16:32;;;;;;;4.75;1.50;;;34.20;44.70;;;;;;2342248;53;21250;-74
2022/06/23 14:22:14;;;;;;;3.37;0.98;;;34.20;44.40;;;;;;2589151;53;21483;-75
2022/06/23 14:25:00;;;;;;;4.72;1.20;;;34.30;44.50;;;;;;2343574;53;20927;-73
2022/06/23 14:27:53;;;;;;;4.18;1.30;;;34.50;43.60;;;;;;2342413;54;21073;-73
2022/06/23 14:30:33;;;;;;;3.70;1.40;;;34.50;43.10;;;;;;2470583;53;20934;-75
2022/06/23 14:35:04;;;;;;;4.60;1.33;;;34.40;43.00;;;;;;2589813;53;20954;-75
2022/06/23 14:37:39;;;;;;;5.35;1.00;;;34.50;43.20;;;;;;2319947;54;20998;-74
2022/06/23 14:40:10;;;;;;;4.68;1.17;;;34.50;43.10;;;;;;2293169;54;20941;-73
2022/06/23 14:45:33;;;;;;;4.15;1.27;;;34.50;43.00;;;;;;2316214;54;21017;-74
2022/06/23 14:51:18;;;;;;;4.37;1.10;;;34.60;43.20;;;;;;2336798;54;21068;-73
2022/06/23 14:56:52;;;;;;;5.55;0.90;;;34.70;43.10;;;;;;2338866;55;20962;-77
2022/06/23 14:59:29;;;;;;;4.53;1.10;;;34.70;42.60;;;;;;2339754;53;20939;-75
2022/06/23 15:08:58;;;;;;;3.35;0.93;;;34.70;42.10;;;;;;2341586;53;20961;-73
2022/06/23 15:11:40;;;;;;;5.07;1.12;;;34.80;42.30;;;;;;2404296;53;20923;-77
2022/06/23 15:14:16;;;;;;;4.90;1.10;;;34.80;41.40;;;;;;2333102;53;21648;-73
2022/06/23 15:17:04;;;;;;;2.95;0.90;;;34.80;41.50;;;;;;2330158;54;20918;-73
2022/06/23 15:19:36;;;;;;;2.75;0.95;;;34.80;41.30;;;;;;2333439;53;20956;-74
2022/06/23 15:25:29;;;;;;;5.12;1.30;;;34.70;41.00;;;;;;2332440;53;21072;-75
2022/06/23 15:28:30;;;;;;;5.05;1.00;;;34.80;40.70;;;;;;2330141;53;20908;-73
2022/06/23 15:31:04;;;;;;;5.05;1.20;;;34.80;40.90;;;;;;2330342;55;21506;-75
2022/06/23 15:33:54;;;;;;;4.72;1.10;;;34.70;41.30;;;;;;2332099;53;20992;-76
2022/06/23 15:37:33;;;;;;;3.70;1.10;;;34.80;40.50;;;;;;2329787;55;21927;-76
2022/06/23 15:40:20;;;;;;;4.10;1.10;;;34.80;40.60;;;;;;2337053;53;21942;-74
2022/06/23 15:43:10;;;;;;;4.53;1.00;;;34.70;39.80;;;;;;2333859;53;21108;-73
2022/06/23 15:46:00;;;;;;;3.22;1.12;;;34.70;39.90;;;;;;2329931;55;21026;-77
2022/06/23 15:48:43;;;;;;;5.65;1.30;;;34.80;40.00;;;;;;2331176;55;21319;-74
2022/06/23 15:51:32;;;;;;;3.17;1.02;;;34.70;39.70;;;;;;2331976;53;20926;-73
2022/06/23 15:54:02;;;;;;;4.30;1.15;;;34.70;39.50;;;;;;2330286;54;20994;-74
2022/06/23 15:56:38;;;;;;;5.53;1.17;;;34.70;40.10;;;;;;2554842;53;22092;-75
2022/06/23 15:59:16;;;;;;;5.85;1.33;;;34.60;39.70;;;;;;2329734;55;20939;-76
2022/06/23 16:01:55;;;;;;;4.82;1.12;;;34.70;39.60;;;;;;2330113;55;20963;-72
2022/06/23 16:04:33;;;;;;;3.95;1.20;;;34.70;40.00;;;;;;2332983;54;21097;-74
2022/06/23 16:07:09;;;;;;;5.20;1.12;;;34.60;39.80;;;;;;2574125;53;21306;-74
2022/06/23 16:09:42;;;;;;;5.47;1.30;;;34.70;40.00;;;;;;2574270;53;20946;-75
2022/06/23 16:12:13;;;;;;;4.03;1.17;;;34.70;39.50;;;;;;2348114;53;21070;-74
2022/06/23 16:14:49;;;;;;;4.15;1.27;;;34.60;39.50;;;;;;2331578;53;22233;-75
2022/06/23 16:17:18;;;;;;;6.85;1.30;;;34.70;39.60;;;;;;2332136;53;20963;-73
2022/06/23 16:24:13;;;;;;;5.90;1.00;;;34.60;39.40;;;;;;2330485;53;22137;-73
2022/06/23 16:27:07;;;;;;;3.42;0.85;;;34.70;39.60;;;;;;2335242;53;20957;-78
2022/06/23 16:29:43;;;;;;;3.25;0.80;;;34.60;39.50;;;;;;2429798;53;20977;-77
2022/06/23 16:32:27;;;;;;;3.15;0.95;;;34.70;39.70;;;;;;2344787;53;20984;-77
2022/06/23 16:35:16;;;;;;;4.90;1.07;;;34.60;39.60;;;;;;2197115;54;8957455;-77
2022/06/23 16:37:50;;;;;;;3.33;1.05;;;34.60;39.40;;;;;;2351197;54;20917;-77
2022/06/23 16:40:53;;;;;;;3.67;1.05;;;34.60;39.60;;;;;;2337039;53;21015;-79
2022/06/23 16:43:39;;;;;;;3.92;0.98;;;34.60;39.20;;;;;;2499234;53;20969;-80
2022/06/23 16:55:33;;;;;;;3.55;0.98;;;34.60;39.30;;;;;;2486878;53;21001;-76
2022/06/23 16:58:07;;;;;;;3.22;0.77;;;34.70;39.90;;;;;;2344268;54;21356;-77
2022/06/23 17:07:30;;;;;;;4.07;1.12;;;34.70;39.70;;;;;;2387402;53;20968;-80
2022/06/23 17:10:14;;;;;;;2.15;0.62;;;34.70;40.00;;;;;;2464315;53;20972;-81
2022/06/23 17:19:30;;;;;;;2.10;0.80;;;34.70;39.60;;;;;;2590685;53;21809;-77
2022/06/23 17:23:18;;;;;;;3.47;0.77;;;34.80;40.10;;;;;;2479676;53;20929;-77
2022/06/23 17:25:50;;;;;;;2.45;0.68;;;34.70;39.80;;;;;;2588728;53;21030;-77
2022/06/23 17:28:30;;;;;;;;;;;34.70;39.80;;;;;;2346134;54;21326;-77
2022/06/23 17:31:01;;;;;;;3.33;1.00;;;34.70;39.90;;;;;;2346546;54;20343;-79